createdAt,value
2023-04-28T00:01:53.597Z,78.60
2023-04-28T00:04:21.282Z,78.90
2023-04-28T00:06:48.885Z,79.00
2023-04-28T00:09:16.118Z,79.20
2023-04-28T00:11:45.998Z,79.30
2023-04-28T00:14:13.736Z,79.40
2023-04-28T00:16:41.441Z,79.40
2023-04-28T00:19:09.456Z,79.90
2023-04-28T00:21:36.708Z,80.10
2023-04-28T00:24:04.035Z,80.10
2023-04-28T00:26:31.309Z,80.50
2023-04-28T00:28:58.621Z,80.80
2023-04-28T00:31:26.087Z,80.90
2023-04-28T00:33:56.219Z,81.20
2023-04-28T00:36:26.738Z,81.60
2023-04-28T00:38:54.591Z,81.70
2023-04-28T00:41:21.915Z,82.20
2023-04-28T00:43:50.453Z,82.80
2023-04-28T00:46:23.341Z,83.00
2023-04-28T00:48:51.329Z,83.60
2023-04-28T00:51:18.552Z,83.70
2023-04-28T00:53:46.210Z,83.60
2023-04-28T00:56:13.500Z,83.50
2023-04-28T00:58:41.544Z,83.70
2023-04-28T01:01:10.536Z,83.90
2023-04-28T01:03:40.448Z,84.70
2023-04-28T01:06:09.993Z,84.00
2023-04-28T01:08:39.146Z,84.30
2023-04-28T01:11:14.084Z,84.40
2023-04-28T01:13:59.427Z,85.00
2023-04-28T01:16:28.414Z,86.40
2023-04-28T01:18:56.414Z,87.30
2023-04-28T01:21:33.753Z,89.20
2023-04-28T01:24:08.859Z,90.10
2023-04-28T01:26:36.139Z,91.30
2023-04-28T01:29:03.401Z,91.40
2023-04-28T01:31:31.307Z,91.90
2023-04-28T01:33:58.928Z,92.80
2023-04-28T01:36:28.467Z,94.00
2023-04-28T01:38:56.244Z,94.60
2023-04-28T01:41:23.537Z,95.40
2023-04-28T01:43:50.796Z,96.60
2023-04-28T01:46:18.919Z,96.70
2023-04-28T01:48:46.285Z,96.40
2023-04-28T01:51:13.717Z,96.50
2023-04-28T01:53:42.051Z,96.60
2023-04-28T01:56:09.488Z,96.80
2023-04-28T01:58:36.861Z,97.30
2023-04-28T02:01:06.467Z,98.50
2023-04-28T02:03:34.070Z,98.80
2023-04-28T02:06:03.909Z,99.20
2023-04-28T02:08:31.776Z,99.50
2023-04-28T02:10:59.052Z,99.90
2023-04-28T02:13:26.317Z,99.90
2023-04-28T02:15:54.173Z,99.90
2023-04-28T02:18:22.030Z,99.90
2023-04-28T02:20:49.251Z,99.90
2023-04-28T02:23:16.478Z,99.90
2023-04-28T02:25:43.662Z,99.90
2023-04-28T02:28:14.044Z,99.90
2023-04-28T02:30:41.360Z,99.90
2023-04-28T02:33:08.623Z,99.90
2023-04-28T02:35:36.023Z,99.90
2023-04-28T02:38:03.215Z,99.90
2023-04-28T02:40:30.631Z,99.90
2023-04-28T02:42:58.194Z,99.90
2023-04-28T02:45:25.612Z,99.90
2023-04-28T02:47:53.020Z,99.90
2023-04-28T02:50:20.378Z,99.90
2023-04-28T02:52:49.070Z,99.90
2023-04-28T02:55:23.773Z,99.90
2023-04-28T02:57:52.099Z,99.90
2023-04-28T03:00:19.559Z,99.90
2023-04-28T03:02:49.214Z,99.90
2023-04-28T03:05:16.609Z,99.90
2023-04-28T03:07:44.291Z,99.90
2023-04-28T03:10:11.636Z,99.90
2023-04-28T03:12:39.082Z,99.90
2023-04-28T03:15:08.829Z,99.90
2023-04-28T03:17:39.157Z,99.90
2023-04-28T03:20:07.181Z,99.90
2023-04-28T03:22:35.012Z,99.90
2023-04-28T03:25:02.774Z,99.90
2023-04-28T03:27:33.710Z,99.90
2023-04-28T03:30:03.892Z,99.90
2023-04-28T03:32:31.252Z,99.90
2023-04-28T03:34:58.556Z,99.90
2023-04-28T03:37:26.263Z,99.90
2023-04-28T03:39:53.612Z,99.90
2023-04-28T03:42:21.081Z,99.90
2023-04-28T03:45:20.459Z,99.90
2023-04-28T03:47:47.873Z,99.90
2023-04-28T03:50:15.583Z,99.90
2023-04-28T03:52:43.088Z,99.90
2023-04-28T03:55:10.531Z,99.90
2023-04-28T03:57:37.929Z,99.90
2023-04-28T04:00:05.890Z,99.90
2023-04-28T04:02:42.709Z,99.90
2023-04-28T04:05:10.632Z,99.90
2023-04-28T04:07:38.191Z,99.90
2023-04-28T04:10:06.764Z,99.90
2023-04-28T04:12:35.802Z,99.90
2023-04-28T04:15:04.201Z,99.90
2023-04-28T04:17:31.736Z,99.90
2023-04-28T04:19:59.079Z,99.90
2023-04-28T04:22:27.425Z,99.90
2023-04-28T04:24:54.630Z,99.90
2023-04-28T04:27:22.762Z,99.90
2023-04-28T04:29:50.291Z,99.90
2023-04-28T04:32:17.658Z,99.90
2023-04-28T04:34:44.919Z,99.90
2023-04-28T04:37:12.608Z,99.90
2023-04-28T04:39:46.526Z,99.90
2023-04-28T04:42:24.820Z,99.90
2023-04-28T04:45:03.946Z,99.90
2023-04-28T04:47:31.986Z,99.90
2023-04-28T04:49:59.627Z,99.90
2023-04-28T04:52:33.102Z,99.90
2023-04-28T04:55:00.936Z,99.90
2023-04-28T04:57:29.162Z,99.90
2023-04-28T05:00:08.088Z,99.90
2023-04-28T05:02:37.053Z,99.90
2023-04-28T05:05:19.630Z,99.90
2023-04-28T05:07:52.364Z,99.90
2023-04-28T05:10:21.736Z,99.90
2023-04-28T05:12:49.443Z,99.90
2023-04-28T05:15:18.564Z,99.90
2023-04-28T05:18:01.328Z,99.90
2023-04-28T05:20:28.709Z,99.90
2023-04-28T05:22:56.047Z,99.90
2023-04-28T05:25:23.528Z,99.90
2023-04-28T05:27:50.806Z,99.90
2023-04-28T05:30:18.109Z,99.90
2023-04-28T05:32:46.223Z,99.90
2023-04-28T05:35:13.699Z,99.90
2023-04-28T05:37:43.486Z,99.90
2023-04-28T05:40:11.128Z,99.90
2023-04-28T05:42:38.321Z,99.90
2023-04-28T05:45:06.960Z,99.90
2023-04-28T05:47:34.489Z,99.90
2023-04-28T05:50:01.831Z,99.90
2023-04-28T05:52:29.051Z,99.90
2023-04-28T05:54:56.323Z,99.90
2023-04-28T05:57:23.581Z,99.90
2023-04-28T05:59:51.160Z,99.90
2023-04-28T06:02:20.447Z,99.90
2023-04-28T06:04:49.631Z,99.90
2023-04-28T06:07:17.174Z,99.90
2023-04-28T06:09:44.928Z,99.90
2023-04-28T06:12:12.237Z,99.90
2023-04-28T06:14:40.674Z,99.90
2023-04-28T06:17:08.847Z,99.90
2023-04-28T06:19:36.137Z,99.90
2023-04-28T06:22:03.470Z,99.90
2023-04-28T06:24:30.836Z,99.90
2023-04-28T06:26:59.216Z,99.90
2023-04-28T06:29:27.942Z,99.90
2023-04-28T06:31:57.802Z,99.90
2023-04-28T06:34:30.865Z,99.90
2023-04-28T06:37:01.312Z,99.90
2023-04-28T06:39:28.688Z,99.90
2023-04-28T06:41:56.098Z,99.90
2023-04-28T06:44:26.323Z,99.90
2023-04-28T06:46:53.647Z,99.90
2023-04-28T06:49:21.145Z,99.90
2023-04-28T06:51:48.504Z,99.90
2023-04-28T06:54:16.856Z,99.90
2023-04-28T06:56:44.928Z,99.90
2023-04-28T06:59:12.158Z,99.90
2023-04-28T07:01:39.543Z,99.90
2023-04-28T07:04:07.005Z,99.90
2023-04-28T07:06:34.478Z,99.90
2023-04-28T07:09:01.950Z,99.90
2023-04-28T07:11:29.188Z,99.90
2023-04-28T07:13:56.612Z,99.90
2023-04-28T07:16:23.914Z,99.90
2023-04-28T07:18:51.188Z,99.90
2023-04-28T07:21:18.386Z,99.90
2023-04-28T07:23:45.968Z,99.90
2023-04-28T07:26:16.240Z,99.90
2023-04-28T07:28:44.879Z,99.90
2023-04-28T07:31:12.147Z,99.90
2023-04-28T07:33:39.417Z,99.90
2023-04-28T07:36:07.074Z,99.90
2023-04-28T07:38:35.629Z,99.90
2023-04-28T07:41:04.017Z,99.90
2023-04-28T07:43:32.077Z,99.90
2023-04-28T07:45:59.450Z,99.90
2023-04-28T07:48:27.428Z,99.90
2023-04-28T07:50:54.691Z,99.90
2023-04-28T07:53:22.231Z,99.90
2023-04-28T07:55:49.486Z,99.90
2023-04-28T07:58:17.105Z,99.90
2023-04-28T08:00:44.589Z,99.90
2023-04-28T08:03:12.205Z,99.90
2023-04-28T08:05:40.009Z,99.90
2023-04-28T08:08:07.641Z,99.90
2023-04-28T08:10:35.034Z,99.90
2023-04-28T08:13:03.276Z,99.90
2023-04-28T08:15:30.732Z,99.90
2023-04-28T08:17:58.249Z,99.90
2023-04-28T08:20:25.670Z,99.90
2023-04-28T08:22:53.348Z,99.90
2023-04-28T08:25:20.776Z,99.90
2023-04-28T08:27:48.089Z,99.90
2023-04-28T08:30:15.510Z,99.90
2023-04-28T08:32:42.913Z,99.90
2023-04-28T08:35:10.428Z,99.90
2023-04-28T08:37:37.744Z,99.90
2023-04-28T08:40:09.850Z,99.90
2023-04-28T08:42:37.850Z,99.90
2023-04-28T08:45:05.691Z,99.90
2023-04-28T08:47:39.758Z,99.90
2023-04-28T08:50:08.529Z,99.90
2023-04-28T08:52:36.837Z,99.90
2023-04-28T08:55:09.792Z,99.90
2023-04-28T08:57:44.756Z,99.90
2023-04-28T09:00:13.010Z,99.90
2023-04-28T09:02:42.631Z,99.90
2023-04-28T09:05:12.089Z,99.90
2023-04-28T09:07:43.655Z,99.90
2023-04-28T09:10:22.584Z,99.90
2023-04-28T09:12:55.118Z,99.90
2023-04-28T09:15:34.468Z,99.90
2023-04-28T09:18:07.245Z,99.90
2023-04-28T09:20:36.235Z,99.90
2023-04-28T09:23:18.233Z,99.90
2023-04-28T09:26:06.553Z,99.90
2023-04-28T09:28:35.646Z,99.90
2023-04-28T09:31:04.098Z,99.90
2023-04-28T09:33:31.606Z,99.90
2023-04-28T09:35:58.922Z,99.90
2023-04-28T09:38:26.435Z,99.90
2023-04-28T09:40:56.714Z,99.90
2023-04-28T09:43:28.884Z,99.90
2023-04-28T09:45:57.951Z,99.90
2023-04-28T09:48:38.415Z,99.90
2023-04-28T09:51:07.864Z,99.90
2023-04-28T09:53:37.909Z,99.90
2023-04-28T09:56:05.563Z,99.90
2023-04-28T09:58:35.152Z,99.90
2023-04-28T10:01:03.385Z,99.90
2023-04-28T10:03:31.349Z,99.90
2023-04-28T10:05:59.453Z,99.90
2023-04-28T10:08:27.836Z,99.90
2023-04-28T10:10:56.951Z,99.90
2023-04-28T10:13:25.061Z,99.90
2023-04-28T10:15:55.409Z,99.90
2023-04-28T10:18:24.519Z,99.90
2023-04-28T10:20:59.974Z,99.90
2023-04-28T10:23:47.910Z,99.90
2023-04-28T10:26:19.921Z,99.90
2023-04-28T10:28:52.013Z,99.90
2023-04-28T10:31:23.717Z,99.90
2023-04-28T10:33:51.076Z,99.90
2023-04-28T10:36:47.453Z,99.90
2023-04-28T10:39:15.289Z,99.90
2023-04-28T10:41:42.637Z,99.90
2023-04-28T10:44:28.563Z,99.90
2023-04-28T10:47:08.093Z,99.90
2023-04-28T10:50:01.053Z,99.90
2023-04-28T10:52:35.292Z,99.90
2023-04-28T10:55:39.894Z,99.90
2023-04-28T10:58:27.314Z,99.90
2023-04-28T11:00:54.604Z,99.90
2023-04-28T11:03:46.986Z,99.90
2023-04-28T11:06:26.595Z,99.90
2023-04-28T11:09:06.092Z,99.90
2023-04-28T11:11:38.933Z,99.90
2023-04-28T11:14:18.276Z,99.90
2023-04-28T11:17:01.414Z,99.90
2023-04-28T11:19:33.850Z,99.90
2023-04-28T11:22:03.213Z,99.90
2023-04-28T11:24:31.354Z,99.90
2023-04-28T11:26:59.548Z,99.90
2023-04-28T11:29:37.692Z,99.90
2023-04-28T11:32:07.017Z,99.90
2023-04-28T11:34:35.448Z,99.90
2023-04-28T11:37:03.430Z,99.90
2023-04-28T11:39:32.793Z,99.90
2023-04-28T11:42:02.451Z,99.90
2023-04-28T11:44:31.135Z,99.90
2023-04-28T11:47:01.386Z,99.90
2023-04-28T11:49:45.921Z,99.90
2023-04-28T11:52:13.785Z,99.90
2023-04-28T11:54:43.953Z,99.90
2023-04-28T11:57:18.841Z,99.90
2023-04-28T11:59:46.575Z,99.90
2023-04-28T12:02:14.257Z,99.90
2023-04-28T12:04:43.544Z,99.90
2023-04-28T12:07:13.460Z,99.90
2023-04-28T12:09:49.141Z,99.90
2023-04-28T12:12:40.230Z,99.90
2023-04-28T12:15:18.203Z,99.90
2023-04-28T12:17:47.436Z,99.90
2023-04-28T12:20:35.360Z,99.90
2023-04-28T12:23:02.903Z,99.90
2023-04-28T12:25:30.429Z,99.90
2023-04-28T12:28:07.458Z,99.90
2023-04-28T12:30:38.881Z,99.90
2023-04-28T12:33:06.488Z,99.90
2023-04-28T12:35:33.872Z,99.90
2023-04-28T12:38:01.094Z,99.90
2023-04-28T12:40:28.366Z,99.90
2023-04-28T12:42:57.137Z,99.90
2023-04-28T12:45:24.912Z,99.90
2023-04-28T12:47:52.857Z,99.90
2023-04-28T12:50:20.399Z,99.90
2023-04-28T12:52:47.603Z,99.90
2023-04-28T12:55:15.115Z,99.90
2023-04-28T12:57:42.510Z,99.90
2023-04-28T13:00:10.609Z,99.90
2023-04-28T13:02:38.356Z,99.90
2023-04-28T13:05:06.531Z,99.90
2023-04-28T13:07:34.354Z,99.90
2023-04-28T13:10:01.665Z,99.90
2023-04-28T13:12:29.015Z,99.90
2023-04-28T13:14:56.186Z,99.90
2023-04-28T13:17:23.580Z,99.90
2023-04-28T13:19:50.947Z,99.90
2023-04-28T13:22:18.374Z,99.90
2023-04-28T13:24:45.735Z,99.90
2023-04-28T13:27:13.546Z,99.90
2023-04-28T13:29:41.192Z,99.90
2023-04-28T13:32:08.743Z,99.90
2023-04-28T13:34:38.046Z,99.90
2023-04-28T13:37:05.252Z,99.90
2023-04-28T13:39:32.767Z,99.90
2023-04-28T13:42:00.203Z,99.90
2023-04-28T13:44:27.543Z,99.90
2023-04-28T13:46:54.922Z,99.90
2023-04-28T13:49:23.718Z,99.90
2023-04-28T13:51:50.978Z,99.90
2023-04-28T13:54:18.337Z,99.90
2023-04-28T13:56:45.970Z,99.90
2023-04-28T13:59:13.599Z,99.90
2023-04-28T14:01:41.077Z,99.90
2023-04-28T14:04:08.613Z,99.90
2023-04-28T14:06:37.164Z,99.90
2023-04-28T14:09:04.584Z,99.90
2023-04-28T14:11:31.928Z,99.90
2023-04-28T14:13:59.378Z,99.90
2023-04-28T14:16:27.536Z,99.90
2023-04-28T14:18:55.617Z,99.90
2023-04-28T14:21:22.917Z,99.70
2023-04-28T14:23:50.152Z,98.10
2023-04-28T14:26:17.512Z,97.70
2023-04-28T14:28:44.711Z,98.00
2023-04-28T14:31:12.539Z,98.60
2023-04-28T14:33:40.262Z,97.30
2023-04-28T14:36:07.487Z,94.40
2023-04-28T14:38:34.898Z,92.10
2023-04-28T14:41:02.119Z,87.60
2023-04-28T14:43:29.371Z,82.40
2023-04-28T14:45:56.683Z,78.20
2023-04-28T14:48:24.203Z,77.10
2023-04-28T14:50:51.724Z,78.10
2023-04-28T14:53:19.068Z,80.40
2023-04-28T14:55:46.388Z,80.60
2023-04-28T14:58:13.612Z,77.20
2023-04-28T15:00:41.030Z,75.00
2023-04-28T15:03:11.669Z,74.00
2023-04-28T15:05:39.452Z,72.10
2023-04-28T15:08:06.952Z,72.70
2023-04-28T15:10:39.375Z,72.40
2023-04-28T15:13:07.520Z,72.20
2023-04-28T15:15:35.363Z,73.00
2023-04-28T15:18:04.486Z,73.90
2023-04-28T15:20:37.110Z,72.80
2023-04-28T15:23:04.432Z,72.70
2023-04-28T15:25:31.674Z,72.50
2023-04-28T15:27:58.971Z,73.90
2023-04-28T15:30:26.352Z,75.40
2023-04-28T15:32:53.847Z,76.40
2023-04-28T15:35:22.085Z,75.10
2023-04-28T15:37:52.191Z,73.20
2023-04-28T15:40:21.028Z,70.10
2023-04-28T15:42:49.084Z,67.00
2023-04-28T15:45:17.082Z,66.30
2023-04-28T15:47:47.237Z,65.90
2023-04-28T15:50:16.105Z,65.00
2023-04-28T15:52:46.071Z,64.70
2023-04-28T15:55:15.255Z,65.50
2023-04-28T15:57:43.579Z,65.80
2023-04-28T16:00:11.679Z,66.80
2023-04-28T16:02:39.570Z,67.60
2023-04-28T16:05:07.584Z,68.70
2023-04-28T16:07:39.137Z,70.40
2023-04-28T16:10:09.132Z,72.20
2023-04-28T16:12:37.333Z,73.60
2023-04-28T16:15:05.487Z,74.60
2023-04-28T16:17:34.142Z,76.60
2023-04-28T16:20:01.970Z,77.40
2023-04-28T16:22:29.711Z,78.00
2023-04-28T16:24:57.647Z,79.00
2023-04-28T16:27:24.938Z,79.70
2023-04-28T16:29:52.548Z,81.10
2023-04-28T16:32:20.159Z,82.80
2023-04-28T16:34:47.560Z,83.40
2023-04-28T16:37:15.160Z,84.00
2023-04-28T16:39:42.456Z,84.80
2023-04-28T16:42:09.701Z,85.60
2023-04-28T16:44:36.953Z,86.90
2023-04-28T16:47:04.552Z,87.80
2023-04-28T16:49:31.915Z,88.60
2023-04-28T16:52:01.272Z,89.30
2023-04-28T16:54:30.069Z,89.90
2023-04-28T16:56:58.490Z,90.20
2023-04-28T16:59:29.652Z,90.50
2023-04-28T17:02:04.234Z,91.00
2023-04-28T17:04:32.058Z,91.50
2023-04-28T17:06:59.723Z,92.10
2023-04-28T17:09:28.028Z,92.40
2023-04-28T17:11:55.454Z,92.90
2023-04-28T17:14:22.912Z,93.40
2023-04-28T17:16:50.376Z,94.10
2023-04-28T17:19:17.802Z,94.50
2023-04-28T17:21:46.351Z,94.90
2023-04-28T17:24:13.574Z,95.50
2023-04-28T17:26:41.595Z,95.90
2023-04-28T17:29:08.953Z,96.70
2023-04-28T17:31:38.820Z,97.10
2023-04-28T17:34:06.484Z,97.80
2023-04-28T17:36:33.802Z,98.40
2023-04-28T17:39:01.338Z,98.90
2023-04-28T17:41:28.616Z,99.40
2023-04-28T17:43:56.264Z,99.90
2023-04-28T17:46:23.888Z,99.90
2023-04-28T17:48:51.524Z,99.90
2023-04-28T17:51:19.549Z,99.90
2023-04-28T17:53:48.614Z,99.90
2023-04-28T17:56:16.266Z,99.90
2023-04-28T17:58:43.798Z,99.90
2023-04-28T18:01:11.550Z,99.90
2023-04-28T18:03:39.592Z,99.90
2023-04-28T18:06:08.158Z,99.90
2023-04-28T18:08:36.972Z,99.90
2023-04-28T18:11:04.859Z,99.90
2023-04-28T18:13:33.096Z,99.90
2023-04-28T18:16:00.924Z,99.90
2023-04-28T18:18:48.066Z,99.90
2023-04-28T18:21:16.534Z,99.90
2023-04-28T18:23:44.048Z,99.90
2023-04-28T18:26:11.384Z,99.90
2023-04-28T18:28:38.595Z,99.90
2023-04-28T18:31:06.457Z,99.90
2023-04-28T18:33:33.713Z,99.90
2023-04-28T18:36:01.857Z,99.90
2023-04-28T18:38:30.969Z,99.90
2023-04-28T18:40:58.338Z,99.90
2023-04-28T18:43:27.839Z,99.90
2023-04-28T18:45:55.341Z,99.90
2023-04-28T18:48:23.495Z,99.90
2023-04-28T18:50:50.899Z,99.90
2023-04-28T18:53:18.158Z,99.90
2023-04-28T18:55:45.630Z,99.90
2023-04-28T18:58:14.930Z,99.90
2023-04-28T19:00:45.738Z,99.90
2023-04-28T19:03:14.056Z,99.90
2023-04-28T19:05:45.623Z,99.90
2023-04-28T19:08:13.097Z,99.90
2023-04-28T19:10:43.072Z,99.90
2023-04-28T19:13:10.906Z,99.90
2023-04-28T19:15:38.336Z,99.90
2023-04-28T19:18:05.632Z,99.90
2023-04-28T19:20:33.049Z,99.90
2023-04-28T19:23:03.779Z,99.90
2023-04-28T19:25:33.534Z,99.90
2023-04-28T19:28:00.988Z,99.90
2023-04-28T19:30:28.318Z,99.90
2023-04-28T19:32:55.691Z,99.90
2023-04-28T19:35:23.350Z,99.90
2023-04-28T19:37:50.805Z,99.90
2023-04-28T19:40:18.057Z,99.90
2023-04-28T19:42:45.407Z,99.90
2023-04-28T19:45:12.824Z,99.90
2023-04-28T19:47:40.127Z,99.90
2023-04-28T19:50:10.129Z,99.90
2023-04-28T19:52:37.522Z,99.90
2023-04-28T19:55:05.155Z,99.90
2023-04-28T19:57:32.480Z,99.90
2023-04-28T19:59:59.727Z,99.90
2023-04-28T20:02:27.256Z,99.90
2023-04-28T20:04:56.542Z,99.90
2023-04-28T20:07:23.905Z,99.90
2023-04-28T20:09:52.572Z,99.90
2023-04-28T20:12:20.114Z,99.90
2023-04-28T20:14:47.381Z,99.90
2023-04-28T20:17:16.152Z,99.90
2023-04-28T20:19:44.397Z,99.90
2023-04-28T20:22:11.635Z,99.90
2023-04-28T20:24:39.516Z,99.90
2023-04-28T20:27:07.181Z,99.90
2023-04-28T20:29:35.066Z,99.90
2023-04-28T20:32:03.194Z,99.90
2023-04-28T20:34:31.573Z,99.90
2023-04-28T20:36:59.567Z,99.90
2023-04-28T20:39:26.892Z,99.90
2023-04-28T20:41:54.357Z,99.90
2023-04-28T20:44:21.899Z,99.90
2023-04-28T20:46:49.336Z,99.90
2023-04-28T20:49:16.950Z,99.90
2023-04-28T20:51:45.337Z,99.90
2023-04-28T20:54:13.017Z,99.90
2023-04-28T20:56:41.961Z,99.90
2023-04-28T20:59:09.437Z,99.90
2023-04-28T21:01:36.795Z,99.90
2023-04-28T21:04:04.329Z,99.90
2023-04-28T21:06:31.605Z,99.90
2023-04-28T21:08:59.370Z,99.90
2023-04-28T21:11:27.091Z,99.90
2023-04-28T21:13:54.345Z,99.90
2023-04-28T21:16:21.950Z,99.90
2023-04-28T21:18:49.751Z,99.90
2023-04-28T21:21:18.240Z,99.90
2023-04-28T21:23:45.760Z,99.90
2023-04-28T21:26:13.469Z,99.90
2023-04-28T21:28:41.636Z,99.90
2023-04-28T21:31:09.788Z,99.90
2023-04-28T21:33:37.309Z,99.90
2023-04-28T21:36:09.047Z,99.90
2023-04-28T21:38:37.963Z,99.90
2023-04-28T21:41:07.379Z,99.90
2023-04-28T21:43:35.321Z,99.90
2023-04-28T21:46:02.873Z,99.90
2023-04-28T21:48:30.211Z,99.90
2023-04-28T21:50:58.208Z,99.90
2023-04-28T21:53:25.543Z,99.90
2023-04-28T21:55:53.108Z,99.90
2023-04-28T21:58:20.554Z,99.90
2023-04-28T22:00:48.341Z,99.90
2023-04-28T22:03:16.156Z,99.90
2023-04-28T22:05:45.127Z,99.90
2023-04-28T22:08:13.946Z,99.90
2023-04-28T22:10:41.606Z,99.90
2023-04-28T22:13:09.117Z,99.90
2023-04-28T22:15:36.754Z,99.90
2023-04-28T22:18:04.662Z,99.90
2023-04-28T22:20:32.503Z,99.90
2023-04-28T22:23:00.267Z,99.90
2023-04-28T22:25:27.647Z,99.90
2023-04-28T22:27:54.950Z,99.90
2023-04-28T22:30:24.346Z,99.90
2023-04-28T22:32:53.194Z,99.90
2023-04-28T22:35:20.650Z,99.90
2023-04-28T22:37:48.019Z,99.90
2023-04-28T22:40:15.347Z,99.90
2023-04-28T22:42:43.321Z,99.90
2023-04-28T22:45:11.598Z,99.90
2023-04-28T22:47:40.881Z,99.90
2023-04-28T22:50:10.733Z,99.90
2023-04-28T22:52:38.212Z,99.90
2023-04-28T22:55:06.398Z,99.90
2023-04-28T22:57:34.127Z,99.90
2023-04-28T23:00:01.961Z,99.90
2023-04-28T23:02:29.446Z,99.90
2023-04-28T23:04:57.027Z,99.90
2023-04-28T23:07:24.540Z,99.90
2023-04-28T23:09:52.103Z,99.90
2023-04-28T23:12:19.803Z,99.90
2023-04-28T23:14:47.117Z,99.90
2023-04-28T23:17:14.375Z,99.90
2023-04-28T23:19:41.704Z,99.90
2023-04-28T23:22:09.031Z,99.90
2023-04-28T23:24:37.935Z,99.90
2023-04-28T23:27:05.645Z,99.90
2023-04-28T23:29:33.155Z,99.90
2023-04-28T23:32:00.520Z,99.90
2023-04-28T23:34:28.376Z,99.90
2023-04-28T23:36:55.657Z,99.90
2023-04-28T23:39:23.048Z,99.90
2023-04-28T23:41:51.078Z,99.90
2023-04-28T23:44:18.708Z,99.90
2023-04-28T23:46:45.933Z,99.90
2023-04-28T23:49:13.614Z,99.90
2023-04-28T23:51:41.210Z,99.90
2023-04-28T23:54:09.543Z,99.90
2023-04-28T23:56:36.846Z,99.90
2023-04-28T23:59:04.873Z,99.90
